Troy, Idaho
Current Conditions -  °F | °C
As of 8:53 PM on Saturday 25 Oct 2014 (Local Time) from KPUW Reporting Station
Few Clouds Few Clouds  
Wind Chill: 58°   Ceiling: Unl
Heat Index: 58°   Visibility: 10mi
Dew Point: 40°   Wind: 20mph
Humidity: 51%   Direction: 200°SSW
Pressure: 29.64"   Gusts: NA
Location:  46.74°N, 116.77°W
Report Text: KPUW 260353Z AUTO 20017KT 10SM FEW080 14/04 A2964 RMK AO2 PK WND 23032/0254 SLP034 T01440044
Loading
Personal Weather Stations






























Interactive Weather Map
Tropical Storm Tracking
New forecast layout! Learn more

10-Day Weather Forecast

Advertisements
Track Severe Weather on mobile